createdAt,value
2022-10-05T00:00:50.542Z,64.35
2022-10-05T00:03:17.580Z,64.31
2022-10-05T00:05:46.110Z,64.06
2022-10-05T00:08:14.608Z,64.23
2022-10-05T00:10:42.722Z,64.11
2022-10-05T00:13:30.757Z,64.12
2022-10-05T00:16:21.176Z,64.63
2022-10-05T00:18:53.954Z,64.29
2022-10-05T00:21:22.408Z,64.50
2022-10-05T00:23:50.354Z,64.41
2022-10-05T00:26:28.139Z,64.34
2022-10-05T00:28:55.264Z,63.99
2022-10-05T00:31:30.902Z,64.54
2022-10-05T00:33:58.639Z,64.31
2022-10-05T00:36:26.432Z,64.47
2022-10-05T00:38:54.790Z,64.35
2022-10-05T00:41:29.543Z,64.40
2022-10-05T00:44:31.902Z,64.61
2022-10-05T00:47:01.806Z,64.54
2022-10-05T00:49:34.614Z,64.11
2022-10-05T00:52:26.331Z,64.24
2022-10-05T00:55:10.652Z,64.56
2022-10-05T00:57:53.661Z,65.03
2022-10-05T01:00:26.280Z,64.73
2022-10-05T01:03:02.532Z,64.66
2022-10-05T01:05:35.970Z,64.54
2022-10-05T01:08:21.471Z,64.72
2022-10-05T01:10:53.198Z,64.76
2022-10-05T01:13:32.411Z,64.39
2022-10-05T01:16:52.235Z,64.90
2022-10-05T01:20:04.150Z,65.02
2022-10-05T01:22:41.646Z,65.19
2022-10-05T01:25:20.595Z,65.24
2022-10-05T01:28:04.206Z,65.25
2022-10-05T01:30:37.823Z,64.52
2022-10-05T01:33:08.279Z,65.04
2022-10-05T01:35:47.046Z,65.35
2022-10-05T01:38:42.716Z,65.43
2022-10-05T01:41:19.812Z,65.46
2022-10-05T01:43:53.093Z,64.67
2022-10-05T01:47:04.466Z,65.30
2022-10-05T01:50:02.559Z,64.99
2022-10-05T01:52:54.919Z,65.19
2022-10-05T01:55:40.613Z,65.82
2022-10-05T01:58:25.758Z,66.17
2022-10-05T02:01:04.302Z,66.29
2022-10-05T02:03:38.208Z,66.73
2022-10-05T02:06:28.000Z,66.92
2022-10-05T02:09:25.268Z,66.98
2022-10-05T02:12:02.432Z,67.29
2022-10-05T02:14:41.051Z,67.04
2022-10-05T02:17:19.639Z,67.50
2022-10-05T02:19:57.286Z,67.31
2022-10-05T02:22:35.594Z,66.91
2022-10-05T02:25:09.684Z,67.49
2022-10-05T02:27:45.660Z,67.49
2022-10-05T02:30:16.402Z,68.38
2022-10-05T02:33:22.121Z,68.29
2022-10-05T02:35:49.115Z,68.60
2022-10-05T02:38:31.260Z,68.62
2022-10-05T02:41:06.335Z,68.40
2022-10-05T02:43:39.049Z,68.85
2022-10-05T02:46:21.609Z,68.92
2022-10-05T02:49:06.720Z,68.83
2022-10-05T02:52:03.277Z,69.02
2022-10-05T02:54:48.943Z,68.90
2022-10-05T02:57:36.428Z,68.94
2022-10-05T03:00:16.939Z,69.04
2022-10-05T03:03:15.705Z,69.15
2022-10-05T03:05:58.779Z,69.48
2022-10-05T03:08:38.088Z,69.72
2022-10-05T03:11:11.150Z,69.44
2022-10-05T03:13:50.161Z,69.98
2022-10-05T03:16:51.563Z,70.24
2022-10-05T03:19:21.592Z,70.04
2022-10-05T03:22:01.461Z,70.24
2022-10-05T03:24:49.480Z,69.68
2022-10-05T03:27:31.887Z,69.87
2022-10-05T03:30:02.375Z,70.25
2022-10-05T03:33:03.755Z,69.72
2022-10-05T03:35:45.879Z,69.71
2022-10-05T03:38:25.084Z,70.16
2022-10-05T03:40:56.905Z,70.09
2022-10-05T03:43:35.963Z,70.22
2022-10-05T03:46:12.728Z,70.57
2022-10-05T03:49:01.626Z,70.49
2022-10-05T03:51:35.575Z,70.56
2022-10-05T03:54:25.782Z,71.60
2022-10-05T03:57:01.726Z,71.10
2022-10-05T03:59:40.609Z,71.18
2022-10-05T04:02:37.072Z,70.57
2022-10-05T04:05:10.867Z,70.76
2022-10-05T04:07:47.062Z,71.23
2022-10-05T04:10:22.105Z,70.74
2022-10-05T04:12:58.551Z,71.36
2022-10-05T04:15:35.063Z,70.95
2022-10-05T04:18:24.345Z,71.05
2022-10-05T04:20:56.527Z,70.74
2022-10-05T04:23:56.095Z,71.17
2022-10-05T04:26:57.705Z,70.68
2022-10-05T04:29:31.601Z,70.85
2022-10-05T04:32:17.784Z,71.33
2022-10-05T04:34:54.477Z,71.10
2022-10-05T04:37:34.113Z,71.46
2022-10-05T04:40:19.656Z,71.34
2022-10-05T04:43:05.810Z,71.72
2022-10-05T04:46:14.724Z,72.76
2022-10-05T04:49:00.005Z,71.45
2022-10-05T04:51:53.110Z,71.74
2022-10-05T04:54:43.747Z,71.98
2022-10-05T04:57:18.097Z,71.36
2022-10-05T05:00:13.850Z,71.20
2022-10-05T05:03:00.132Z,71.10
2022-10-05T05:06:19.287Z,71.67
2022-10-05T05:09:02.720Z,71.58
2022-10-05T05:12:01.992Z,71.55
2022-10-05T05:14:51.363Z,72.21
2022-10-05T05:17:27.792Z,71.66
2022-10-05T05:20:08.854Z,71.48
2022-10-05T05:22:54.651Z,70.72
2022-10-05T05:25:36.918Z,71.30
2022-10-05T05:28:30.209Z,70.70
2022-10-05T05:31:11.350Z,70.85
2022-10-05T05:34:02.146Z,70.54
2022-10-05T05:36:36.947Z,71.00
2022-10-05T05:39:27.926Z,71.07
2022-10-05T05:42:01.770Z,70.46
2022-10-05T05:44:40.316Z,70.89
2022-10-05T05:47:08.013Z,70.59
2022-10-05T05:49:40.042Z,70.46
2022-10-05T05:52:28.762Z,71.14
2022-10-05T05:55:18.044Z,70.46
2022-10-05T05:58:00.696Z,70.34
2022-10-05T06:00:34.675Z,70.13
2022-10-05T06:03:13.411Z,70.41
2022-10-05T06:05:52.410Z,70.09
2022-10-05T06:08:41.453Z,70.36
2022-10-05T06:11:23.213Z,70.14
2022-10-05T06:13:51.794Z,69.31
2022-10-05T06:16:34.272Z,70.01
2022-10-05T06:19:11.519Z,70.33
2022-10-05T06:22:06.219Z,69.94
2022-10-05T06:25:19.407Z,69.92
2022-10-05T06:28:08.189Z,70.24
2022-10-05T06:31:00.392Z,69.90
2022-10-05T06:33:47.035Z,70.48
2022-10-05T06:36:32.554Z,70.30
2022-10-05T06:39:27.082Z,69.84
2022-10-05T06:42:26.120Z,70.00
2022-10-05T06:46:03.048Z,69.69
2022-10-05T06:48:59.703Z,69.87
2022-10-05T06:52:13.557Z,69.08
2022-10-05T06:54:57.028Z,69.58
2022-10-05T06:58:12.666Z,68.85
2022-10-05T07:00:39.660Z,69.30
2022-10-05T07:03:37.069Z,68.68
2022-10-05T07:06:36.486Z,68.46
2022-10-05T07:09:39.282Z,68.52
2022-10-05T07:12:42.572Z,68.96
2022-10-05T07:15:38.826Z,68.82
2022-10-05T07:18:22.383Z,69.09
2022-10-05T07:21:04.649Z,69.40
2022-10-05T07:23:44.269Z,69.37
2022-10-05T07:26:42.474Z,69.41
2022-10-05T07:29:33.763Z,69.05
2022-10-05T07:32:31.997Z,69.00
2022-10-05T07:35:41.398Z,69.55
2022-10-05T07:38:23.332Z,68.75
2022-10-05T07:40:59.283Z,69.13
2022-10-05T07:44:02.642Z,68.77
2022-10-05T07:46:50.064Z,67.55
2022-10-05T07:49:33.012Z,67.34
2022-10-05T07:52:03.335Z,67.30
2022-10-05T07:54:43.176Z,66.31
2022-10-05T07:57:27.511Z,66.40
2022-10-05T08:00:03.896Z,66.60
2022-10-05T08:02:56.800Z,67.30
2022-10-05T08:05:30.957Z,66.33
2022-10-05T08:08:21.600Z,64.84
2022-10-05T08:10:55.295Z,64.80
2022-10-05T08:13:46.083Z,65.23
2022-10-05T08:16:14.571Z,64.31
2022-10-05T08:18:59.429Z,63.21
2022-10-05T08:21:44.601Z,64.19
2022-10-05T08:24:32.926Z,64.91
2022-10-05T08:27:02.779Z,64.64
2022-10-05T08:29:37.410Z,64.81
2022-10-05T08:32:21.376Z,64.26
2022-10-05T08:34:55.806Z,64.58
2022-10-05T08:37:33.668Z,64.63
2022-10-05T08:40:00.584Z,64.53
2022-10-05T08:42:47.904Z,64.78
2022-10-05T08:45:27.148Z,65.13
2022-10-05T08:48:12.440Z,65.22
2022-10-05T08:51:01.029Z,64.72
2022-10-05T08:54:14.253Z,64.85
2022-10-05T08:57:06.172Z,65.47
2022-10-05T09:00:10.902Z,65.31
2022-10-05T09:02:46.650Z,65.75
2022-10-05T09:05:37.310Z,65.91
2022-10-05T09:08:27.195Z,65.69
2022-10-05T09:11:26.807Z,65.22
2022-10-05T09:14:12.135Z,65.54
2022-10-05T09:16:48.774Z,65.39
2022-10-05T09:19:37.536Z,65.91
2022-10-05T09:22:35.044Z,65.73
2022-10-05T09:25:27.422Z,65.32
2022-10-05T09:28:17.039Z,64.38
2022-10-05T09:31:02.094Z,64.10
2022-10-05T09:33:38.400Z,64.55
2022-10-05T09:36:19.409Z,64.64
2022-10-05T09:39:05.369Z,65.02
2022-10-05T09:42:01.350Z,65.10
2022-10-05T09:44:53.466Z,65.09
2022-10-05T09:47:35.802Z,65.26
2022-10-05T09:50:50.993Z,65.93
2022-10-05T09:53:34.458Z,65.57
2022-10-05T09:56:10.569Z,65.33
2022-10-05T09:59:10.062Z,65.35
2022-10-05T10:02:08.009Z,64.56
2022-10-05T10:04:53.865Z,63.88
2022-10-05T10:07:43.933Z,63.40
2022-10-05T10:10:39.033Z,64.00
2022-10-05T10:13:24.167Z,62.65
2022-10-05T10:16:09.892Z,62.47
2022-10-05T10:19:03.077Z,63.45
2022-10-05T10:21:51.399Z,63.94
2022-10-05T10:24:30.354Z,64.15
2022-10-05T10:27:23.266Z,64.96
2022-10-05T10:30:08.558Z,64.28
2022-10-05T10:33:12.063Z,63.78
2022-10-05T10:35:58.177Z,61.92
2022-10-05T10:38:51.863Z,62.15
2022-10-05T10:41:48.041Z,62.66
2022-10-05T10:45:06.090Z,61.87
2022-10-05T10:47:56.189Z,62.88
2022-10-05T10:51:14.086Z,63.10
2022-10-05T10:53:53.351Z,63.04
2022-10-05T10:56:44.183Z,62.31
2022-10-05T10:59:31.637Z,62.78
2022-10-05T11:02:20.527Z,63.24
2022-10-05T11:05:14.954Z,61.71
2022-10-05T11:08:19.004Z,60.66
2022-10-05T11:11:03.534Z,61.52
2022-10-05T11:14:02.886Z,61.63
2022-10-05T11:17:02.820Z,61.83
2022-10-05T11:20:02.626Z,61.94
2022-10-05T11:22:44.510Z,61.69
2022-10-05T11:25:42.941Z,62.35
2022-10-05T11:28:38.062Z,61.69
2022-10-05T11:31:11.065Z,62.04
2022-10-05T11:33:59.393Z,61.98
2022-10-05T11:36:45.064Z,62.03
2022-10-05T11:39:33.821Z,62.23
2022-10-05T11:42:31.730Z,62.62
2022-10-05T11:45:08.007Z,61.67
2022-10-05T11:47:44.637Z,61.93
2022-10-05T11:50:17.386Z,61.23
2022-10-05T11:53:14.229Z,61.10
2022-10-05T11:55:58.070Z,60.38
2022-10-05T11:58:48.617Z,61.38
2022-10-05T12:01:24.359Z,61.07
2022-10-05T12:04:17.371Z,61.48
2022-10-05T12:06:55.348Z,62.56
2022-10-05T12:10:14.784Z,61.38
2022-10-05T12:13:06.178Z,61.66
2022-10-05T12:15:45.351Z,60.77
2022-10-05T12:18:39.373Z,61.25
2022-10-05T12:21:33.967Z,60.69
2022-10-05T12:24:04.427Z,60.74
2022-10-05T12:26:53.179Z,60.22
2022-10-05T12:29:29.777Z,60.81
2022-10-05T12:32:12.907Z,60.84
2022-10-05T12:35:11.693Z,60.44
2022-10-05T12:37:56.228Z,60.93
2022-10-05T12:40:32.701Z,60.69
2022-10-05T12:43:10.710Z,61.17
2022-10-05T12:46:23.765Z,60.82
2022-10-05T12:48:57.637Z,61.26
2022-10-05T12:51:56.604Z,61.75
2022-10-05T12:54:43.356Z,62.58
2022-10-05T12:57:27.275Z,63.37
2022-10-05T13:00:02.608Z,63.59
2022-10-05T13:03:10.082Z,63.63
2022-10-05T13:05:57.855Z,64.12
2022-10-05T13:08:50.565Z,65.19
2022-10-05T13:11:49.618Z,66.40
2022-10-05T13:14:37.048Z,66.18
2022-10-05T13:17:11.743Z,65.55
2022-10-05T13:19:46.763Z,64.73
2022-10-05T13:22:30.848Z,65.02
2022-10-05T13:25:27.622Z,64.30
2022-10-05T13:28:26.812Z,64.65
2022-10-05T13:31:02.928Z,65.02
2022-10-05T13:33:43.155Z,64.18
2022-10-05T13:36:31.401Z,64.06
2022-10-05T13:39:12.852Z,64.30
2022-10-05T13:41:51.945Z,64.84
2022-10-05T13:44:31.085Z,64.65
2022-10-05T13:47:13.103Z,64.30
2022-10-05T13:50:00.629Z,64.58
2022-10-05T13:52:50.030Z,64.11
2022-10-05T13:55:33.125Z,64.34
2022-10-05T13:58:06.101Z,64.24
2022-10-05T14:00:45.199Z,64.91
2022-10-05T14:03:32.446Z,65.43
2022-10-05T14:06:11.761Z,65.09
2022-10-05T14:08:55.019Z,64.57
2022-10-05T14:11:21.947Z,64.48
2022-10-05T14:13:50.359Z,64.44
2022-10-05T14:16:24.192Z,64.06
2022-10-05T14:18:56.207Z,64.06
2022-10-05T14:21:31.914Z,63.20
2022-10-05T14:24:45.422Z,62.55
2022-10-05T14:27:30.461Z,63.13
2022-10-05T14:30:20.437Z,63.92
2022-10-05T14:32:56.267Z,64.13
2022-10-05T14:35:31.216Z,63.73
2022-10-05T14:38:02.313Z,63.44
2022-10-05T14:40:35.010Z,63.02
2022-10-05T14:43:18.918Z,62.90
2022-10-05T14:46:01.739Z,63.73
2022-10-05T14:48:38.692Z,62.83
2022-10-05T14:51:11.512Z,63.76
2022-10-05T14:53:40.591Z,63.95
2022-10-05T14:56:42.202Z,64.33
2022-10-05T14:59:24.453Z,64.05
2022-10-05T15:02:16.119Z,63.73
2022-10-05T15:04:59.694Z,64.47
2022-10-05T15:07:39.064Z,63.73
2022-10-05T15:10:30.814Z,63.16
2022-10-05T15:13:15.731Z,63.41
2022-10-05T15:15:47.719Z,62.93
2022-10-05T15:18:42.756Z,62.94
2022-10-05T15:21:22.721Z,62.86
2022-10-05T15:23:56.936Z,63.01
2022-10-05T15:26:39.121Z,62.61
2022-10-05T15:29:42.824Z,63.41
2022-10-05T15:32:24.695Z,63.71
2022-10-05T15:35:10.170Z,64.08
2022-10-05T15:37:48.129Z,63.73
2022-10-05T15:40:30.495Z,63.94
2022-10-05T15:43:04.243Z,63.95
2022-10-05T15:45:35.670Z,63.95
2022-10-05T15:48:15.310Z,63.86
2022-10-05T15:51:03.609Z,64.65
2022-10-05T15:54:16.487Z,64.20
2022-10-05T15:56:53.939Z,64.75
2022-10-05T15:59:30.798Z,64.78
2022-10-05T16:02:07.362Z,64.41
2022-10-05T16:05:09.655Z,64.23
2022-10-05T16:08:04.656Z,64.47
2022-10-05T16:10:38.607Z,64.93
2022-10-05T16:13:29.878Z,65.75
2022-10-05T16:16:12.980Z,65.52
2022-10-05T16:18:55.192Z,65.92
2022-10-05T16:21:51.888Z,66.71
2022-10-05T16:24:43.317Z,66.53
2022-10-05T16:27:36.404Z,68.08
2022-10-05T16:30:11.852Z,67.53
2022-10-05T16:33:12.278Z,67.15
2022-10-05T16:35:46.404Z,67.21
2022-10-05T16:38:30.166Z,67.25
2022-10-05T16:41:48.138Z,67.53
2022-10-05T16:44:34.277Z,67.29
2022-10-05T16:47:36.487Z,66.74
2022-10-05T16:50:22.044Z,66.90
2022-10-05T16:53:10.095Z,66.67
2022-10-05T16:55:42.224Z,66.36
2022-10-05T16:58:39.239Z,66.32
2022-10-05T17:01:24.122Z,66.92
2022-10-05T17:04:36.837Z,66.70
2022-10-05T17:07:35.205Z,66.49
2022-10-05T17:10:24.984Z,66.94
2022-10-05T17:13:21.906Z,67.08
2022-10-05T17:16:21.558Z,67.02
2022-10-05T17:19:13.597Z,67.49
2022-10-05T17:21:50.699Z,67.11
2022-10-05T17:24:23.923Z,67.19
2022-10-05T17:27:07.463Z,67.62
2022-10-05T17:29:53.277Z,66.82
2022-10-05T17:32:23.400Z,66.83
2022-10-05T17:35:02.690Z,67.22
2022-10-05T17:37:40.061Z,66.98
2022-10-05T17:40:31.917Z,66.56
2022-10-05T17:43:04.834Z,67.42
2022-10-05T17:45:31.897Z,66.68
2022-10-05T17:48:03.281Z,66.75
2022-10-05T17:51:21.022Z,66.71
2022-10-05T17:54:07.468Z,66.46
2022-10-05T17:56:57.214Z,66.55
2022-10-05T17:59:45.847Z,67.41
2022-10-05T18:02:22.395Z,66.65
2022-10-05T18:05:16.266Z,66.97
2022-10-05T18:07:48.934Z,66.66
2022-10-05T18:13:50.380Z,66.80
2022-10-05T18:16:56.123Z,66.77
2022-10-05T18:19:24.401Z,66.71
2022-10-05T18:22:22.334Z,66.98
2022-10-05T18:24:56.149Z,66.35
2022-10-05T18:27:31.938Z,66.97
2022-10-05T18:30:19.899Z,67.19
2022-10-05T18:32:56.201Z,67.45
2022-10-05T18:35:51.029Z,67.57
2022-10-05T18:38:56.613Z,67.73
2022-10-05T18:41:50.937Z,68.42
2022-10-05T18:44:21.291Z,67.84
2022-10-05T18:47:12.686Z,67.88
2022-10-05T18:50:02.929Z,67.78
2022-10-05T18:53:19.164Z,67.85
2022-10-05T18:55:56.280Z,68.88
2022-10-05T18:58:41.383Z,69.04
2022-10-05T19:01:21.134Z,68.84
2022-10-05T19:04:04.688Z,69.08
2022-10-05T19:06:59.752Z,69.62
2022-10-05T19:10:01.067Z,69.49
2022-10-05T19:12:31.232Z,69.04
2022-10-05T19:15:50.667Z,70.12
2022-10-05T19:18:51.274Z,70.01
2022-10-05T19:21:53.980Z,69.59
2022-10-05T19:24:31.276Z,69.73
2022-10-05T19:27:01.421Z,69.65
2022-10-05T19:29:46.946Z,69.62
2022-10-05T19:32:17.794Z,69.10
2022-10-05T19:35:07.784Z,69.35
2022-10-05T19:37:59.152Z,69.60
2022-10-05T19:40:26.715Z,69.32
2022-10-05T19:43:09.758Z,69.79
2022-10-05T19:45:43.766Z,69.19
2022-10-05T19:48:32.689Z,69.16
2022-10-05T19:51:01.676Z,68.65
2022-10-05T19:53:31.610Z,69.04
2022-10-05T19:56:21.656Z,68.29
2022-10-05T19:58:50.401Z,68.42
2022-10-05T20:01:30.987Z,67.86
2022-10-05T20:03:58.571Z,67.68
2022-10-05T20:06:27.106Z,67.95
2022-10-05T20:09:04.753Z,67.67
2022-10-05T20:11:32.286Z,67.79
2022-10-05T20:14:02.270Z,67.95
2022-10-05T20:16:52.236Z,67.31
2022-10-05T20:19:54.554Z,67.46
2022-10-05T20:22:34.964Z,67.46
2022-10-05T20:25:18.231Z,67.39
2022-10-05T20:27:55.560Z,68.02
2022-10-05T20:30:31.465Z,67.98
2022-10-05T20:33:04.613Z,67.63
2022-10-05T20:35:31.738Z,68.01
2022-10-05T20:38:02.060Z,67.67
2022-10-05T20:40:30.293Z,67.54
2022-10-05T20:42:58.975Z,67.92
2022-10-05T20:45:25.984Z,67.89
2022-10-05T20:47:53.004Z,67.87
2022-10-05T20:50:22.930Z,67.60
2022-10-05T20:52:49.901Z,67.97
2022-10-05T20:55:17.140Z,68.08
2022-10-05T20:57:46.223Z,68.24
2022-10-05T21:00:13.979Z,68.31
2022-10-05T21:02:41.020Z,68.05
2022-10-05T21:05:08.729Z,68.65
2022-10-05T21:07:35.974Z,68.12
2022-10-05T21:10:03.970Z,67.85
2022-10-05T21:12:34.019Z,68.34
2022-10-05T21:15:01.660Z,68.53
2022-10-05T21:17:31.703Z,68.53
2022-10-05T21:19:58.635Z,68.50
2022-10-05T21:22:25.802Z,68.52
2022-10-05T21:24:52.776Z,68.76
2022-10-05T21:27:19.810Z,68.97
2022-10-05T21:29:46.781Z,68.65
2022-10-05T21:32:13.695Z,69.35
2022-10-05T21:34:41.432Z,69.80
2022-10-05T21:37:09.131Z,69.98
2022-10-05T21:39:36.849Z,70.56
2022-10-05T21:42:04.264Z,70.42
2022-10-05T21:44:31.276Z,70.57
2022-10-05T21:46:58.459Z,70.37
2022-10-05T21:49:27.289Z,70.35
2022-10-05T21:51:54.685Z,70.87
2022-10-05T21:54:22.818Z,70.91
2022-10-05T21:56:53.454Z,70.47
2022-10-05T21:59:24.842Z,70.81
2022-10-05T22:01:52.145Z,70.59
2022-10-05T22:04:19.231Z,70.70
2022-10-05T22:06:46.243Z,71.49
2022-10-05T22:09:13.281Z,71.03
2022-10-05T22:11:40.349Z,71.45
2022-10-05T22:14:07.330Z,71.50
2022-10-05T22:16:38.717Z,71.13
2022-10-05T22:19:10.694Z,71.42
2022-10-05T22:21:41.826Z,71.36
2022-10-05T22:24:11.764Z,71.79
2022-10-05T22:26:40.446Z,71.82
2022-10-05T22:29:07.616Z,71.74
2022-10-05T22:31:34.740Z,71.56
2022-10-05T22:34:01.853Z,71.38
2022-10-05T22:36:29.054Z,71.75
2022-10-05T22:38:56.114Z,72.21
2022-10-05T22:41:23.218Z,71.92
2022-10-05T22:43:51.320Z,72.30
2022-10-05T22:46:18.831Z,72.41
2022-10-05T22:48:45.843Z,72.83
2022-10-05T22:51:12.873Z,72.78
2022-10-05T22:53:40.013Z,72.29
2022-10-05T22:56:12.898Z,72.63
2022-10-05T22:58:41.816Z,72.95
2022-10-05T23:01:12.006Z,72.63
2022-10-05T23:03:39.879Z,73.34
2022-10-05T23:06:12.707Z,73.47
2022-10-05T23:08:41.038Z,73.20
2022-10-05T23:11:13.634Z,73.70
2022-10-05T23:13:40.990Z,73.11
2022-10-05T23:16:16.545Z,73.39
2022-10-05T23:18:44.384Z,73.49
2022-10-05T23:21:12.256Z,73.08
2022-10-05T23:23:41.263Z,73.37
2022-10-05T23:26:10.545Z,73.03
2022-10-05T23:28:39.766Z,73.70
2022-10-05T23:31:08.117Z,73.87
2022-10-05T23:33:35.885Z,73.99
2022-10-05T23:36:06.442Z,73.68
2022-10-05T23:38:35.221Z,73.59
2022-10-05T23:41:02.941Z,73.99
2022-10-05T23:43:30.188Z,73.66
2022-10-05T23:45:57.221Z,73.99
2022-10-05T23:48:25.078Z,73.69
2022-10-05T23:50:53.433Z,74.04
2022-10-05T23:53:20.763Z,74.05
2022-10-05T23:55:52.370Z,74.05
2022-10-05T23:58:20.379Z,74.15
